Time;durP1;ratioP1;P1;durP2;ratioP2;P2;SDS_P1;SDS_P2;PMS_P1;PMS_P2;Temp;Humidity;BMP_temperature;BMP_pressure;BME280_temperature;BME280_humidity;BME280_pressure;Samples;Min_cycle;Max_cycle;Signal;HPM_P1;HPM_P2
2024/01/26 00:02:30;;;;;;;10.73;3.50;;;;;;;7.42;47.64;100398.28;7764662;32;37737;-83
2024/01/26 00:06:48;;;;;;;10.85;3.53;;;;;;;7.32;47.96;100409.72;7764428;32;39345;-83
2024/01/26 00:11:05;;;;;;;11.02;3.25;;;;;;;7.46;47.71;100398.62;7769957;32;40860;-83
2024/01/26 00:15:21;;;;;;;8.30;3.28;;;;;;;7.75;47.07;100401.47;7791496;32;38745;-83
2024/01/26 00:19:39;;;;;;;12.35;3.83;;;;;;;7.44;47.84;100398.88;7791556;32;37041;-83
2024/01/26 00:23:55;;;;;;;14.65;3.33;;;;;;;7.31;47.84;100388.25;7791142;32;40089;-83
2024/01/26 00:28:12;;;;;;;11.20;3.70;;;;;;;7.13;47.67;100391.91;7791087;32;40592;-83
2024/01/26 00:32:28;;;;;;;9.10;3.53;;;;;;;7.40;47.32;100394.13;7791200;32;37884;-83
2024/01/26 00:36:44;;;;;;;7.65;3.28;;;;;;;7.30;47.18;100392.03;7791129;32;37752;-83
2024/01/26 00:41:01;;;;;;;8.10;3.25;;;;;;;7.13;47.55;100405.47;7791034;32;39424;-84
2024/01/26 00:45:17;;;;;;;8.23;3.25;;;;;;;6.65;48.48;100418.06;7790754;32;39766;-83
2024/01/26 00:49:34;;;;;;;8.15;3.40;;;;;;;6.74;48.68;100435.66;7790660;32;37573;-83
2024/01/26 00:54:03;;;;;;;9.27;3.60;;;;;;;6.58;49.27;100414.62;7790635;32;37502;-83
2024/01/26 00:58:20;;;;;;;10.52;4.05;;;;;;;6.05;50.53;100437.78;7790549;32;39346;-83
2024/01/26 01:02:36;;;;;;;8.85;3.97;;;;;;;5.95;51.09;100427.47;7790356;32;40914;-82
2024/01/26 01:06:53;;;;;;;8.05;3.40;;;;;;;5.46;52.20;100440.84;7792307;32;37876;-83
2024/01/26 01:11:09;;;;;;;8.48;3.78;;;;;;;5.67;52.16;100435.28;7780178;32;37067;-83
2024/01/26 01:15:25;;;;;;;9.10;3.37;;;;;;;5.83;51.80;100435.50;7780005;32;39784;-83
2024/01/26 01:19:42;;;;;;;8.60;3.67;;;;;;;5.71;52.47;100440.03;7793968;32;40537;-84
2024/01/26 01:23:58;;;;;;;6.62;3.70;;;;;;;5.89;52.02;100435.66;7793596;32;38052;-83
2024/01/26 01:28:14;;;;;;;9.38;3.80;;;;;;;5.97;51.88;100438.94;7793752;32;37716;-83
2024/01/26 01:32:31;;;;;;;13.57;3.97;;;;;;;5.72;52.89;100438.13;7793719;32;39977;-83
2024/01/26 01:36:47;;;;;;;7.93;4.10;;;;;;;5.74;52.99;100453.06;7793644;32;39660;-83
2024/01/26 01:41:04;;;;;;;9.25;3.85;;;;;;;5.38;53.97;100451.13;7793638;32;37974;-83
2024/01/26 01:45:21;;;;;;;7.45;3.67;;;;;;;5.36;54.36;100450.53;7793468;32;37700;-83
2024/01/26 01:49:41;;;;;;;9.48;3.67;;;;;;;5.40;54.08;100462.56;7793548;32;40141;-83
2024/01/26 01:53:58;;;;;;;7.40;3.42;;;;;;;5.31;54.22;100463.87;7793565;32;40549;-83
2024/01/26 01:58:15;;;;;;;5.50;3.37;;;;;;;5.33;54.31;100464.47;7787837;32;37988;-83
2024/01/26 02:02:32;;;;;;;11.07;4.00;;;;;;;5.08;54.67;100473.41;7768252;32;36783;-84
2024/01/26 02:06:56;;;;;;;10.38;4.03;;;;;;;5.23;54.74;100473.94;7793220;32;39232;-83
2024/01/26 02:11:13;;;;;;;7.60;3.60;;;;;;;5.36;54.29;100461.34;7793094;32;39905;-84
2024/01/26 02:15:29;;;;;;;7.80;3.33;;;;;;;5.55;53.73;100465.75;7792768;32;38139;-83
2024/01/26 02:19:45;;;;;;;9.70;3.58;;;;;;;5.43;53.26;100467.53;7792783;32;36645;-83
2024/01/26 02:24:02;;;;;;;7.68;3.60;;;;;;;5.56;53.10;100475.53;7793053;32;39063;-83
2024/01/26 02:28:19;;;;;;;10.15;3.87;;;;;;;5.61;53.14;100458.63;7792852;32;39909;-84
2024/01/26 02:32:35;;;;;;;7.15;3.80;;;;;;;5.41;54.38;100469.62;7792828;32;39045;-84
2024/01/26 02:36:52;;;;;;;10.77;4.28;;;;;;;4.82;56.24;100461.72;7792895;32;37505;-84
2024/01/26 02:41:08;;;;;;;7.75;3.95;;;;;;;5.36;54.56;100455.94;7791263;32;40102;-83
2024/01/26 02:45:25;;;;;;;7.57;4.15;;;;;;;4.72;56.70;100472.19;7792736;32;39919;-83
2024/01/26 02:49:43;;;;;;;10.63;3.90;;;;;;;4.94;56.69;100471.84;7792744;32;37629;-83
2024/01/26 02:54:00;;;;;;;9.32;4.62;;;;;;;4.87;56.62;100469.19;7792741;32;37125;-83
2024/01/26 02:58:16;;;;;;;10.95;4.18;;;;;;;5.15;55.93;100470.66;7792761;32;39257;-84
2024/01/26 03:02:33;;;;;;;8.60;3.87;;;;;;;5.08;56.00;100476.12;7792601;32;39927;-84
2024/01/26 03:06:51;;;;;;;11.07;3.67;;;;;;;5.44;55.19;100485.41;7778346;32;38000;-84
2024/01/26 03:11:07;;;;;;;7.50;3.90;;;;;;;5.60;54.50;100484.84;7792826;32;36027;-84
2024/01/26 03:15:23;;;;;;;9.25;3.83;;;;;;;5.49;54.25;100487.47;7792616;32;39055;-83
2024/01/26 03:19:40;;;;;;;6.95;3.08;;;;;;;5.83;53.15;100494.22;7792401;32;40043;-84
2024/01/26 03:23:56;;;;;;;9.95;3.72;;;;;;;5.72;52.96;100487.66;7792357;32;38928;-83
2024/01/26 03:28:13;;;;;;;7.18;3.97;;;;;;;5.31;53.50;100499.03;7791434;32;38477;-83
2024/01/26 03:32:29;;;;;;;10.38;3.67;;;;;;;5.72;53.18;100498.47;7791995;32;40018;-83
2024/01/26 03:36:46;;;;;;;11.45;4.32;;;;;;;5.72;53.27;100492.25;7738132;32;40543;-83
2024/01/26 03:41:02;;;;;;;9.73;3.87;;;;;;;5.24;55.03;100491.81;7749023;32;37983;-84
2024/01/26 03:45:19;;;;;;;12.15;3.95;;;;;;;5.36;54.35;100480.28;7764926;32;36862;-84
2024/01/26 03:49:36;;;;;;;8.20;4.00;;;;;;;5.19;55.52;100478.13;7764948;32;39314;-84
2024/01/26 03:53:52;;;;;;;8.80;4.03;;;;;;;4.07;59.32;100483.88;7764796;32;39906;-85
2024/01/26 03:58:09;;;;;;;10.70;4.12;;;;;;;3.83;59.51;100492.62;7764628;32;38113;-83
2024/01/26 04:02:25;;;;;;;6.03;3.90;;;;;;;4.29;58.51;100500.66;7764654;32;37093;-84
2024/01/26 04:06:42;;;;;;;7.95;4.28;;;;;;;4.49;58.06;100511.34;7764610;32;39783;-81
2024/01/26 04:10:58;;;;;;;11.38;4.28;;;;;;;4.63;57.50;100517.53;7769963;32;40849;-84
2024/01/26 04:15:15;;;;;;;8.98;4.82;;;;;;;4.68;57.24;100519.59;7791496;32;38710;-84
2024/01/26 04:19:31;;;;;;;13.07;4.82;;;;;;;5.03;56.43;100530.81;7791411;32;38586;-84
2024/01/26 04:23:47;;;;;;;11.68;4.60;;;;;;;4.71;57.79;100543.47;7791243;32;39074;-84
2024/01/26 04:28:04;;;;;;;9.23;4.55;;;;;;;4.32;58.83;100561.47;7791158;32;39618;-84
2024/01/26 04:32:21;;;;;;;7.95;3.87;;;;;;;4.54;58.27;100567.44;7778507;32;38635;-84
2024/01/26 04:36:37;;;;;;;7.28;4.00;;;;;;;4.87;57.12;100566.47;7764006;32;37708;-85
2024/01/26 04:40:53;;;;;;;8.27;4.05;;;;;;;4.89;57.07;100564.38;7767215;32;39936;-84
2024/01/26 04:45:10;;;;;;;7.37;4.50;;;;;;;4.95;56.74;100560.81;7765985;32;40867;-83
2024/01/26 04:49:26;;;;;;;10.27;4.47;;;;;;;5.11;56.33;100561.34;7767021;32;38722;-85
2024/01/26 04:53:43;;;;;;;10.25;4.32;;;;;;;5.16;55.90;100565.06;7767104;32;37850;-84
2024/01/26 04:58:00;;;;;;;12.20;4.30;;;;;;;5.00;56.07;100569.09;7766959;32;39325;-85
2024/01/26 05:02:16;;;;;;;10.55;4.40;;;;;;;4.63;57.24;100565.31;7766865;32;39981;-84
2024/01/26 05:06:33;;;;;;;11.15;4.00;;;;;;;4.39;58.21;100564.97;7766796;32;37787;-85
2024/01/26 05:10:49;;;;;;;9.85;4.32;;;;;;;4.88;57.00;100574.34;7765568;32;37831;-84
2024/01/26 05:15:09;;;;;;;12.25;4.32;;;;;;;4.13;58.87;100588.28;7766843;32;38904;-84
2024/01/26 05:19:26;;;;;;;8.35;4.90;;;;;;;4.78;57.33;100590.19;7766744;32;39611;-84
2024/01/26 05:23:42;;;;;;;10.43;4.43;;;;;;;4.53;58.34;100587.34;7766532;32;37969;-84
2024/01/26 05:27:58;;;;;;;6.87;4.03;;;;;;;4.83;57.53;100587.69;7766430;32;37806;-85
2024/01/26 05:32:15;;;;;;;13.98;4.72;;;;;;;4.17;59.40;100609.44;7767377;32;39209;-85
2024/01/26 05:36:31;;;;;;;10.23;4.60;;;;;;;4.38;59.07;100621.88;7766492;32;40844;-85
2024/01/26 05:40:48;;;;;;;14.80;5.07;;;;;;;4.47;58.86;100618.75;7766342;32;37714;-85
2024/01/26 05:45:04;;;;;;;13.20;4.60;;;;;;;4.25;59.47;100618.16;7766385;32;37034;-84
2024/01/26 05:49:23;;;;;;;8.35;4.30;;;;;;;4.03;59.68;100625.66;7765750;32;39378;-85
2024/01/26 05:53:40;;;;;;;12.85;5.25;;;;;;;4.53;58.33;100621.66;7766444;32;40003;-85
2024/01/26 05:57:57;;;;;;;7.70;4.35;;;;;;;4.54;57.43;100621.44;7766240;32;37864;-85
2024/01/26 06:02:13;;;;;;;12.45;4.53;;;;;;;4.47;57.28;100621.44;7766191;32;37729;-86
2024/01/26 06:06:29;;;;;;;8.85;4.28;;;;;;;4.47;57.45;100618.75;7766037;32;39268;-85
2024/01/26 06:10:46;;;;;;;11.02;4.95;;;;;;;4.36;57.75;100621.25;7765927;32;39721;-84
2024/01/26 06:15:02;;;;;;;12.05;4.28;;;;;;;4.35;57.85;100623.13;7766113;32;38851;-85
2024/01/26 06:19:19;;;;;;;12.20;5.03;;;;;;;4.55;57.49;100614.16;7765966;32;37729;-85
2024/01/26 06:23:35;;;;;;;11.85;4.80;;;;;;;4.62;56.96;100623.06;7765922;32;39829;-84
2024/01/26 06:27:52;;;;;;;12.10;4.68;;;;;;;4.41;57.46;100635.78;7765864;32;40553;-83
2024/01/26 06:32:08;;;;;;;11.10;4.87;;;;;;;4.63;56.69;100640.94;7785132;32;37971;-84
2024/01/26 06:36:25;;;;;;;17.77;4.90;;;;;;;4.48;57.20;100650.13;7792985;32;36973;-84
2024/01/26 06:40:42;;;;;;;9.05;4.80;;;;;;;4.30;57.86;100658.84;7792933;32;40032;-85
2024/01/26 06:44:58;;;;;;;10.98;4.90;;;;;;;4.50;57.19;100653.44;7792872;32;40998;-84
2024/01/26 06:49:15;;;;;;;9.43;4.32;;;;;;;4.33;57.59;100646.81;7778757;32;38809;-85
2024/01/26 06:53:31;;;;;;;12.57;5.25;;;;;;;4.28;57.80;100646.63;7792862;32;36731;-85
2024/01/26 06:57:48;;;;;;;11.85;4.90;;;;;;;4.54;57.08;100642.22;7792733;32;39997;-84
2024/01/26 07:02:04;;;;;;;8.43;5.22;;;;;;;4.38;57.51;100652.44;7791405;32;39916;-83
2024/01/26 07:06:21;;;;;;;11.05;4.62;;;;;;;4.28;57.97;100655.53;7792447;32;38723;-84
2024/01/26 07:10:38;;;;;;;11.25;5.22;;;;;;;4.11;58.08;100657.00;7784163;32;36645;-84
2024/01/26 07:14:54;;;;;;;8.88;5.32;;;;;;;3.73;58.77;100634.16;7767545;32;40086;-84
2024/01/26 07:19:11;;;;;;;9.02;5.18;;;;;;;4.36;57.45;100630.19;7778888;32;39851;-83
2024/01/26 07:23:27;;;;;;;10.43;4.82;;;;;;;4.29;58.04;100637.47;7792279;32;37997;-85
2024/01/26 07:27:43;;;;;;;11.05;5.55;;;;;;;4.10;59.26;100647.25;7776942;32;36686;-84
2024/01/26 07:32:00;;;;;;;13.57;5.47;;;;;;;4.11;59.57;100660.53;7792377;32;38984;-85
2024/01/26 07:36:16;;;;;;;11.77;5.37;;;;;;;4.32;59.16;100666.75;7792225;32;39966;-84
2024/01/26 07:40:33;;;;;;;8.13;5.25;;;;;;;4.23;59.97;100662.62;7792212;32;37978;-81
2024/01/26 07:44:49;;;;;;;13.52;6.28;;;;;;;4.84;62.58;100658.75;7792155;32;36981;-83
2024/01/26 07:49:06;;;;;;;9.63;5.72;;;;;;;5.16;61.80;100670.50;7792053;32;38881;-84
2024/01/26 07:53:22;;;;;;;10.82;5.45;;;;;;;5.41;58.07;100667.03;7792147;32;40013;-84
2024/01/26 07:57:39;;;;;;;13.32;5.68;;;;;;;5.43;57.48;100679.31;7791767;32;38626;-84
2024/01/26 08:01:55;;;;;;;11.48;5.68;;;;;;;5.61;56.67;100681.28;7786495;32;37112;-85
2024/01/26 08:06:11;;;;;;;10.88;5.28;;;;;;;5.68;56.23;100683.12;7778744;32;39883;-83
2024/01/26 08:10:28;;;;;;;10.40;4.85;;;;;;;5.94;55.39;100685.66;7764421;32;40882;-83
2024/01/26 08:14:45;;;;;;;8.98;4.50;;;;;;;5.57;56.01;100685.47;7763837;32;37806;-83
2024/01/26 08:19:01;;;;;;;10.32;5.28;;;;;;;5.03;57.91;100684.03;7763993;32;37020;-73
2024/01/26 08:23:18;;;;;;;9.38;4.47;;;;;;;5.24;59.36;100675.66;7758660;32;173407;-83
2024/01/26 08:27:36;;;;;;;12.37;4.43;;;;;;;5.60;55.73;100663.38;7764080;32;40889;-82
2024/01/26 08:31:52;;;;;;;8.57;4.20;;;;;;;5.77;57.04;100657.47;7763971;32;37988;-84
2024/01/26 08:36:09;;;;;;;7.10;4.32;;;;;;;6.07;54.99;100663.09;7764079;32;36882;-84
2024/01/26 08:40:26;;;;;;;8.80;4.35;;;;;;;6.24;53.67;100641.69;7763969;32;39731;-84
2024/01/26 08:44:42;;;;;;;10.15;4.68;;;;;;;6.30;53.39;100651.66;7763672;32;40342;-84
2024/01/26 08:48:59;;;;;;;10.90;4.68;;;;;;;6.34;53.67;100658.25;7763456;32;37934;-85
2024/01/26 08:53:15;;;;;;;12.00;4.45;;;;;;;6.11;53.75;100671.63;7763548;32;37864;-83
2024/01/26 08:57:32;;;;;;;10.68;4.30;;;;;;;6.36;53.12;100672.44;7763187;32;39096;-83
2024/01/26 09:01:48;;;;;;;9.65;4.47;;;;;;;6.20;54.11;100654.03;7765132;32;40198;-84
2024/01/26 09:06:05;;;;;;;14.90;4.60;;;;;;;6.41;53.70;100651.97;7763223;32;37804;-82
2024/01/26 09:10:24;;;;;;;9.48;4.20;;;;;;;6.85;52.51;100652.78;7763006;32;37774;-82
2024/01/26 09:14:40;;;;;;;10.73;4.32;;;;;;;7.10;52.34;100649.94;7763070;32;39383;-83
2024/01/26 09:18:57;;;;;;;6.78;4.37;;;;;;;7.26;50.76;100657.47;7762810;32;39823;-85
2024/01/26 09:23:16;;;;;;;8.38;4.55;;;;;;;6.80;52.15;100656.16;7762620;32;38044;-85
2024/01/26 09:27:32;;;;;;;10.77;4.68;;;;;;;6.84;52.32;100656.53;7764939;32;37836;-84
2024/01/26 09:31:50;;;;;;;7.53;3.87;;;;;;;6.54;52.91;100668.91;7766832;32;39250;-84
2024/01/26 09:36:06;;;;;;;14.07;4.07;;;;;;;6.76;52.05;100673.91;7766447;32;41515;-84
2024/01/26 09:40:24;;;;;;;14.57;4.75;;;;;;;6.86;51.96;100663.38;7766332;32;37964;-84
2024/01/26 09:44:40;;;;;;;10.88;3.92;;;;;;;7.53;50.34;100667.97;7770814;32;37957;-83
2024/01/26 09:48:57;;;;;;;11.55;4.57;;;;;;;8.08;49.31;100662.31;7766254;32;39945;-81
2024/01/26 09:53:14;;;;;;;6.75;3.75;;;;;;;8.57;48.43;100651.28;7765112;32;39630;-83
2024/01/26 09:57:32;;;;;;;8.60;3.75;;;;;;;8.74;47.55;100637.78;7765353;32;37046;-83
2024/01/26 10:01:50;;;;;;;8.13;3.72;;;;;;;9.13;46.76;100629.87;7764905;32;37701;-79
2024/01/26 10:06:08;;;;;;;9.18;3.70;;;;;;;9.08;47.17;100626.25;7766112;32;39989;-83
2024/01/26 10:10:25;;;;;;;12.35;4.30;;;;;;;9.30;46.61;100632.66;7764825;32;38912;-84
2024/01/26 10:14:41;;;;;;;13.75;4.18;;;;;;;8.89;47.21;100633.75;7766043;32;37617;-83
2024/01/26 10:18:58;;;;;;;11.38;4.65;;;;;;;9.14;46.44;100625.25;7765931;32;37030;-83
2024/01/26 10:23:15;;;;;;;11.23;4.87;;;;;;;9.68;45.40;100625.75;7777165;32;39416;-83
2024/01/26 10:27:33;;;;;;;9.90;3.87;;;;;;;10.19;44.64;100603.13;7754732;32;41307;-83
2024/01/26 10:31:53;;;;;;;6.82;2.90;;;;;;;10.53;43.59;100602.03;7764978;32;37368;-80
2024/01/26 10:36:13;;;;;;;9.82;3.50;;;;;;;10.88;49.17;100603.59;7764913;32;36982;-83
2024/01/26 10:40:30;;;;;;;8.07;3.05;;;;;;;10.77;43.60;100595.53;7752238;32;39808;-85
2024/01/26 10:44:51;;;;;;;13.45;3.60;;;;;;;10.55;42.51;100600.94;7765519;32;40030;-83
2024/01/26 10:49:09;;;;;;;8.57;3.37;;;;;;;10.27;42.99;100594.53;7779926;32;38762;-83
2024/01/26 10:53:26;;;;;;;6.87;3.28;;;;;;;11.01;41.94;100594.19;7744380;32;37382;-83
2024/01/26 10:57:43;;;;;;;13.95;3.70;;;;;;;11.02;41.37;100589.53;7759811;32;39411;-85
2024/01/26 11:02:01;;;;;;;13.18;3.97;;;;;;;11.28;41.66;100583.28;7779489;32;40821;-84
2024/01/26 11:06:18;;;;;;;15.18;5.10;;;;;;;11.16;40.63;100590.81;7768533;32;40276;-84
2024/01/26 11:10:35;;;;;;;11.48;3.25;;;;;;;11.25;41.28;100589.25;7759756;32;37028;-83
2024/01/26 11:15:13;;;;;;;10.60;3.20;;;;;;;11.12;40.67;100578.72;7748140;32;38942;-84
2024/01/26 11:19:31;;;;;;;8.95;2.85;;;;;;;11.26;40.93;100560.06;7759395;32;39574;-84
2024/01/26 11:23:48;;;;;;;4.75;2.47;;;;;;;11.60;40.26;100568.84;7760915;32;37169;-82
2024/01/26 11:28:08;;;;;;;10.27;3.08;;;;;;;11.19;40.00;100565.75;7763691;32;36959;-83
2024/01/26 11:32:25;;;;;;;10.85;3.03;;;;;;;11.29;40.54;100551.34;7763207;32;39895;-84
2024/01/26 11:36:41;;;;;;;5.62;2.97;;;;;;;11.99;40.10;100559.63;7752533;32;40831;-82
2024/01/26 11:40:58;;;;;;;8.25;3.17;;;;;;;11.99;39.69;100567.84;7748916;32;37664;-83
2024/01/26 11:45:39;;;;;;;7.53;2.85;;;;;;;11.73;39.71;100551.22;7762900;32;36748;-84
2024/01/26 11:49:57;;;;;;;9.05;2.90;;;;;;;11.80;38.80;100543.62;7738478;32;39310;-84
2024/01/26 11:54:13;;;;;;;6.93;3.00;;;;;;;12.10;38.18;100541.38;7771410;32;40849;-84
2024/01/26 11:58:30;;;;;;;8.68;3.60;;;;;;;11.73;38.39;100548.47;7780819;32;37721;-83
2024/01/26 12:02:47;;;;;;;8.55;3.50;;;;;;;11.87;38.85;100524.28;7781164;32;37692;-81
2024/01/26 12:07:04;;;;;;;8.65;2.80;;;;;;;12.50;37.60;100515.34;7747664;32;38987;-82
2024/01/26 12:11:21;;;;;;;7.37;2.70;;;;;;;12.47;38.39;100518.63;7768741;32;39954;-83
2024/01/26 12:15:38;;;;;;;6.12;2.20;;;;;;;13.74;35.72;100500.81;7757439;32;38520;-84
2024/01/26 12:19:57;;;;;;;7.47;2.78;;;;;;;13.33;35.53;100503.53;7759290;32;37698;-85
2024/01/26 12:24:13;;;;;;;6.87;2.50;;;;;;;12.81;35.46;100507.25;7763422;32;39376;-82
2024/01/26 12:28:31;;;;;;;4.45;2.20;;;;;;;12.80;35.94;100506.44;7761979;32;39943;-82
2024/01/26 12:32:47;;;;;;;6.57;2.10;;;;;;;12.96;35.87;100501.81;7762674;32;37879;-83
2024/01/26 12:37:07;;;;;;;6.82;2.58;;;;;;;12.47;35.91;100505.78;7761743;32;36933;-83
2024/01/26 12:41:25;;;;;;;8.15;2.50;;;;;;;12.24;37.15;100498.81;7753241;32;38976;-87
2024/01/26 12:45:41;;;;;;;7.75;2.42;;;;;;;11.39;38.09;100506.94;7743962;32;40720;-88
2024/01/26 12:49:58;;;;;;;8.20;2.50;;;;;;;11.22;38.05;100491.50;7755661;32;37677;-88
2024/01/26 12:54:14;;;;;;;7.18;2.40;;;;;;;11.26;36.90;100476.28;7760289;32;36951;-93
2024/01/26 12:58:31;;;;;;;5.50;2.62;;;;;;;11.03;37.87;100466.50;7749316;32;39245;-87
2024/01/26 13:02:47;;;;;;;12.50;3.28;;;;;;;10.76;38.82;100460.22;7766531;32;40091;-86
2024/01/26 13:07:04;;;;;;;9.80;2.95;;;;;;;11.06;37.44;100465.19;7766037;32;38522;-86
2024/01/26 13:11:20;;;;;;;9.95;2.80;;;;;;;11.22;37.37;100458.75;7760638;32;37193;-78
2024/01/26 13:15:36;;;;;;;12.07;3.30;;;;;;;10.84;39.59;100463.31;7764062;32;39093;-78
2024/01/26 13:19:53;;;;;;;6.35;2.72;;;;;;;11.66;38.87;100452.28;7765488;32;40837;-88
2024/01/26 13:24:23;;;;;;;7.03;2.80;;;;;;;11.83;36.44;100447.47;7765587;32;37954;-87
2024/01/26 13:28:40;;;;;;;8.07;2.33;;;;;;;12.35;35.85;100443.09;7766161;32;37530;-87
2024/01/26 13:32:59;;;;;;;6.37;2.40;;;;;;;12.07;35.54;100441.59;7765800;32;39402;-87
2024/01/26 13:37:16;;;;;;;13.20;4.60;;;;;;;11.05;35.89;100458.06;7766202;32;40162;-87
2024/01/26 13:41:33;;;;;;;7.50;2.67;;;;;;;11.52;35.37;100451.91;7765956;32;37949;-87
2024/01/26 13:45:53;;;;;;;8.30;3.30;;;;;;;11.70;34.97;100436.19;7765637;32;36954;-86
2024/01/26 13:50:10;;;;;;;10.73;2.65;;;;;;;10.98;35.83;100454.72;7765933;32;39268;-87
2024/01/26 13:54:26;;;;;;;6.32;2.40;;;;;;;10.63;37.66;100456.81;7765514;32;39800;-87
2024/01/26 13:58:43;;;;;;;7.50;2.87;;;;;;;10.38;38.33;100460.06;7765755;32;37951;-87
2024/01/26 14:02:59;;;;;;;4.50;2.42;;;;;;;10.38;38.94;100460.06;7765969;32;37866;-87
2024/01/26 14:07:16;;;;;;;5.43;2.78;;;;;;;9.53;40.81;100476.56;7752056;32;40326;-87
2024/01/26 14:11:33;;;;;;;6.07;2.40;;;;;;;8.71;42.66;100460.72;7751329;32;39921;-86
2024/01/26 14:15:49;;;;;;;7.57;2.87;;;;;;;9.67;40.71;100457.19;7765185;32;37973;-86
2024/01/26 14:20:06;;;;;;;6.43;2.58;;;;;;;9.03;41.71;100467.31;7765164;32;36577;-87
2024/01/26 14:24:23;;;;;;;7.37;2.67;;;;;;;9.28;41.83;100457.94;7765531;32;40867;-86
2024/01/26 14:28:39;;;;;;;4.75;2.65;;;;;;;8.77;43.01;100454.31;7765112;32;39965;-85
2024/01/26 14:32:56;;;;;;;7.97;3.35;;;;;;;8.83;43.14;100443.31;7765182;32;38865;-86
2024/01/26 14:37:12;;;;;;;5.97;3.00;;;;;;;8.88;43.00;100447.19;7765397;32;36991;-85
2024/01/26 14:41:28;;;;;;;7.15;3.22;;;;;;;7.74;45.77;100449.47;7765456;32;40074;-86
2024/01/26 14:45:45;;;;;;;10.68;3.72;;;;;;;8.22;45.29;100448.34;7764754;32;40730;-86
2024/01/26 14:50:03;;;;;;;8.00;3.67;;;;;;;8.68;44.39;100429.44;7765196;32;37914;-86
2024/01/26 14:54:19;;;;;;;9.18;4.10;;;;;;;8.59;44.87;100431.72;7765319;32;38540;-86
2024/01/26 14:58:38;;;;;;;6.95;3.25;;;;;;;8.30;45.56;100424.59;7765103;32;39088;-86
2024/01/26 15:02:54;;;;;;;10.85;3.80;;;;;;;8.18;45.84;100421.91;7764751;32;40841;-86
2024/01/26 15:07:11;;;;;;;8.43;3.50;;;;;;;8.13;46.22;100416.37;7765316;32;37849;-86
2024/01/26 15:11:27;;;;;;;9.70;3.28;;;;;;;7.60;47.12;100429.06;7765072;32;36919;-86
2024/01/26 15:15:44;;;;;;;7.18;3.40;;;;;;;7.57;47.43;100415.97;7764768;32;39126;-86
2024/01/26 15:20:05;;;;;;;9.75;3.65;;;;;;;7.37;47.57;100416.34;7764690;32;39890;-86
2024/01/26 15:24:23;;;;;;;10.73;4.50;;;;;;;7.01;48.74;100400.00;7763829;32;37952;-87
2024/01/26 15:28:39;;;;;;;10.30;5.15;;;;;;;7.39;48.48;100395.22;7764448;32;37091;-87
2024/01/26 15:32:56;;;;;;;7.90;4.22;;;;;;;7.99;47.17;100403.06;7764366;32;39776;-87
2024/01/26 15:37:14;;;;;;;13.88;4.20;;;;;;;7.18;49.31;100404.75;7764711;32;40734;-87
2024/01/26 15:41:31;;;;;;;8.88;3.70;;;;;;;7.02;50.43;100415.22;7764761;32;37380;-87
2024/01/26 15:45:49;;;;;;;10.68;3.58;;;;;;;6.94;50.79;100407.44;7764625;32;36985;-86
2024/01/26 15:50:06;;;;;;;8.27;3.60;;;;;;;6.49;53.11;100407.88;7750214;32;39112;-86
2024/01/26 15:54:23;;;;;;;9.07;4.53;;;;;;;7.14;51.22;100402.50;7764391;32;40026;-85
2024/01/26 15:58:40;;;;;;;12.27;4.82;;;;;;;6.34;53.46;100406.41;7763395;32;37611;-82
2024/01/26 16:02:56;;;;;;;11.12;4.75;;;;;;;6.87;52.29;100401.28;7764759;32;36857;-82
2024/01/26 16:07:12;;;;;;;13.05;4.75;;;;;;;6.80;52.39;100395.16;7764819;32;39233;-82
2024/01/26 16:11:32;;;;;;;16.15;5.12;;;;;;;6.24;53.51;100391.75;7764428;32;39900;-82
2024/01/26 16:15:51;;;;;;;10.63;5.78;;;;;;;6.55;53.25;100388.84;7764488;32;38042;-82
2024/01/26 16:20:09;;;;;;;18.90;6.00;;;;;;;7.12;52.05;100361.25;7764720;32;37164;-82
2024/01/26 16:24:25;;;;;;;12.80;6.30;;;;;;;6.46;53.59;100375.84;7764338;32;40109;-82
2024/01/26 16:28:42;;;;;;;15.20;5.97;;;;;;;6.59;54.05;100362.09;7763745;32;40524;-81
2024/01/26 16:33:00;;;;;;;16.70;5.85;;;;;;;6.99;52.83;100345.22;7760828;32;36664;-82
2024/01/26 16:37:17;;;;;;;14.68;6.03;;;;;;;6.62;53.87;100350.78;7758462;32;37431;-82
2024/01/26 16:41:33;;;;;;;15.43;7.03;;;;;;;7.11;52.72;100340.62;7763403;32;39834;-80
2024/01/26 16:45:50;;;;;;;15.23;6.43;;;;;;;6.98;54.80;100365.22;7754454;32;39852;-83
2024/01/26 16:50:07;;;;;;;16.80;7.20;;;;;;;7.31;52.44;100345.69;7762841;32;37927;-83
2024/01/26 16:54:24;;;;;;;11.63;5.65;;;;;;;7.64;51.25;100310.81;7763178;32;36734;-83
2024/01/26 16:58:40;;;;;;;15.95;6.30;;;;;;;7.66;51.42;100325.81;7763498;32;39531;-84
2024/01/26 17:02:59;;;;;;;18.27;6.95;;;;;;;7.59;51.62;100322.41;7749552;32;40096;-83
2024/01/26 17:07:16;;;;;;;16.08;7.35;;;;;;;7.60;51.41;100318.63;7762482;32;37525;-84
2024/01/26 17:11:32;;;;;;;15.32;6.97;;;;;;;7.80;51.10;100312.81;7762304;32;37794;-84
2024/01/26 17:15:49;;;;;;;17.52;7.72;;;;;;;7.83;51.02;100319.63;7762850;32;40007;-84
2024/01/26 17:20:07;;;;;;;26.17;8.77;;;;;;;7.38;52.41;100323.88;7761971;32;39791;-82
2024/01/26 17:24:23;;;;;;;16.30;8.80;;;;;;;7.61;52.21;100320.28;7748160;32;37878;-82
2024/01/26 17:28:40;;;;;;;17.55;7.05;;;;;;;7.84;52.80;100321.28;7762511;32;36846;-83
2024/01/26 17:32:56;;;;;;;21.30;7.55;;;;;;;7.19;55.18;100330.47;7762694;32;39211;-83
2024/01/26 17:37:13;;;;;;;24.45;9.68;;;;;;;7.38;54.78;100325.75;7762480;32;39876;-82
2024/01/26 17:41:29;;;;;;;34.33;10.77;;;;;;;7.08;55.67;100337.56;7762232;32;37896;-82
2024/01/26 17:45:46;;;;;;;24.08;10.27;;;;;;;6.71;56.05;100346.69;7763169;32;36883;-82
2024/01/26 17:50:02;;;;;;;17.70;7.90;;;;;;;6.80;55.92;100346.38;7766163;32;39342;-82
2024/01/26 17:54:22;;;;;;;21.40;7.65;;;;;;;6.57;56.64;100343.38;7766150;32;40265;-83
2024/01/26 17:58:38;;;;;;;22.55;9.05;;;;;;;6.67;55.87;100340.06;7752279;32;36820;-83
2024/01/26 18:02:55;;;;;;;17.98;7.30;;;;;;;6.16;58.34;100331.47;7765202;32;37070;-84
2024/01/26 18:07:11;;;;;;;20.27;7.93;;;;;;;6.50;57.74;100328.25;7765656;32;39272;-84
2024/01/26 18:11:28;;;;;;;16.05;8.55;;;;;;;6.71;59.10;100326.88;7765032;32;40670;-84
2024/01/26 18:15:44;;;;;;;20.10;8.77;;;;;;;6.85;59.84;100338.37;7765354;32;38731;-82
2024/01/26 18:20:00;;;;;;;21.55;9.32;;;;;;;7.01;60.22;100329.53;7750978;32;37110;-83
2024/01/26 18:24:17;;;;;;;26.75;9.45;;;;;;;7.02;60.56;100320.34;7765513;32;39399;-83
2024/01/26 18:28:34;;;;;;;19.37;8.35;;;;;;;7.03;61.32;100307.59;7765026;32;39703;-82
2024/01/26 18:32:50;;;;;;;13.82;7.87;;;;;;;7.19;61.15;100297.94;7764744;32;37870;-83
2024/01/26 18:37:06;;;;;;;20.83;7.80;;;;;;;6.96;62.22;100294.16;7765851;32;37173;-83
2024/01/26 18:41:31;;;;;;;19.85;7.68;;;;;;;7.02;62.13;100279.69;7765748;32;39271;-83
2024/01/26 18:45:48;;;;;;;13.65;6.57;;;;;;;7.20;61.86;100259.72;7765783;32;39623;-83
2024/01/26 18:50:04;;;;;;;16.45;7.53;;;;;;;7.08;62.12;100240.75;7765339;32;37957;-82
2024/01/26 18:54:21;;;;;;;16.25;6.10;;;;;;;7.22;61.74;100232.38;7765406;32;37245;-83
2024/01/26 18:58:39;;;;;;;21.08;6.80;;;;;;;7.18;61.98;100242.88;7764684;32;39847;-82
2024/01/26 19:02:55;;;;;;;15.60;6.28;;;;;;;7.28;61.94;100224.13;7763658;32;40224;-83
2024/01/26 19:07:12;;;;;;;15.95;5.47;;;;;;;7.19;62.34;100220.09;7765068;32;37613;-84
2024/01/26 19:11:28;;;;;;;10.95;5.07;;;;;;;7.29;62.29;100230.34;7765071;32;36946;-83
2024/01/26 19:15:45;;;;;;;20.65;8.55;;;;;;;7.54;61.57;100238.19;7765093;32;39280;-84
2024/01/26 19:20:04;;;;;;;21.95;9.18;;;;;;;7.25;62.80;100218.34;7764596;32;39675;-84
2024/01/26 19:24:21;;;;;;;17.90;8.85;;;;;;;7.30;62.86;100218.44;7765087;32;37885;-85
2024/01/26 19:28:38;;;;;;;20.73;10.85;;;;;;;7.39;62.71;100208.06;7764837;32;37604;-83
2024/01/26 19:32:55;;;;;;;20.12;9.05;;;;;;;7.22;63.37;100202.53;7764377;32;39301;-85
2024/01/26 19:37:12;;;;;;;18.80;8.20;;;;;;;7.37;63.07;100202.03;7764621;32;40936;-85
2024/01/26 19:41:29;;;;;;;14.98;8.05;;;;;;;7.24;63.42;100184.97;7764510;32;37812;-85
2024/01/26 19:45:46;;;;;;;15.98;6.72;;;;;;;7.16;63.75;100188.06;7764870;32;38383;-84
2024/01/26 19:50:03;;;;;;;18.60;7.62;;;;;;;7.32;63.26;100171.03;7764104;32;39030;-84
2024/01/26 19:54:19;;;;;;;15.30;6.82;;;;;;;7.39;63.17;100170.06;7764541;32;40289;-84
2024/01/26 19:58:36;;;;;;;15.43;6.55;;;;;;;7.49;62.75;100173.81;7763854;32;37748;-83